Weather observations for the past three days for
Fitzgerald Municipal Airport
Imperial (Metric)
Date Time (edt) Wind (mph) Vis. (mi.) Weather Sky Cond. Temperature (ºF) Relative Humidity Wind Chill (°F) Heat Index (°F) Pressure Precipitation (in)
Air Dwpt 6 hour altimeter (in) sea level (mb) 1 hr 3 hr 6 hr
Max. Min.
03 02:35 Calm 10.00 Fair CLR 74.7 72.5 93% 30.04 0.0
03 02:15 Calm 10.00 Fair CLR 74.7 72.7 94% 30.04 0.0
03 01:55 Calm 10.00 Fair CLR 75 72.5 87.6 74.8 92% 74 30.05 0.0
03 01:35 Calm 10.00 Fair CLR 75.7 72.9 91% 75 30.05 0.0
03 01:15 Calm 10.00 Fair CLR 77.9 72.9 85% 80 30.05 0.0
03 00:55 Calm 10.00 Fair CLR 77.7 72.7 85% 80 30.05 0.0
03 00:35 Calm 10.00 Fair CLR 77.4 72.5 85% 79 30.05 0.0
03 00:15 Calm 10.00 Fair CLR 78.1 72.5 83% 81 30.05 0.0
02 23:55 Calm 10.00 Fair CLR 78.4 72.3 82% 81 30.05 0.0
02 23:35 Calm 10.00 Fair CLR 79.7 72 77% 83 30.05 0.0
02 23:15 Calm 10.00 Fair CLR 79 72.5 81% 82 30.05 0.0
02 22:55 Calm 10.00 Fair CLR 79 72.5 81% 82 30.05 0.0
02 22:35 Calm 10.00 Fair CLR 79.3 72.5 80% 83 30.05 0.0
02 22:15 Calm 10.00 Fair CLR 80.6 72 75% 85 30.05 0.0
02 21:55 SE 3 10.00 Fair CLR 80.2 73.2 79% 85 30.05 0.0
02 21:35 Calm 10.00 Fair CLR 80.1 73.8 81% 85 30.04 0.0
02 21:15 Calm 10.00 Fair CLR 80.4 74.7 83% 86 30.03 0.0
02 20:55 Calm 10.00 Fair CLR 80.8 74.3 81% 86 30.03 0.0
02 20:35 Calm 10.00 Partly Cloudy SCT002 81.9 74.3 78% 88 30.02 0.0
02 20:15 Calm 10.00 Partly Cloudy SCT002 84.4 74.3 72% 92 30.02 0.0
02 19:55 Calm 10.00 Fair CLR 87.8 72 94.6 87.8 59% 94 30.02 0.0
02 19:35 Calm 10.00 Fair CLR 89.1 72 57% 96 30.01 0.0
02 19:15 Calm 10.00 Fair CLR 90.5 71.6 54% 97 30.01 0.0
02 18:55 E 3 10.00 Fair CLR 91.4 71.1 51% 98 30.01 0.0
02 18:35 Calm 10.00 Fair CLR 92.3 71.2 50% 99 30.02 0.0
02 18:15 E 6 10.00 Partly Cloudy SCT060 SCT065 92.3 71.2 50% 99 30.02 0.0
02 17:55 E 7 10.00 Partly Cloudy SCT060 92.8 70.7 49% 99 30.01 0.0
02 17:35 E 8 10.00 Partly Cloudy SCT002 SCT060 93.7 70 46% 100 30.02 0.0
02 17:15 SE 6 10.00 Partly Cloudy SCT060 93 70 47% 99 30.02 0.0
02 16:55 E 6 10.00 Partly Cloudy SCT050 94.3 69.1 44% 100 30.02 0.0
02 16:35 E 5 10.00 Partly Cloudy SCT050 SCT060 93.9 70.2 46% 100 30.02 0.0
02 16:15 SE 7 10.00 Partly Cloudy SCT060 94.1 70.3 46% 101 30.03 0.0
02 15:55 NE 7 10.00 Fair CLR 94.1 69.4 45% 100 30.04 0.0
02 15:35 E 7 10.00 Fair CLR 93.2 70.5 48% 100 30.04 0.0
02 15:15 E 7 10.00 Partly Cloudy SCT048 SCT060 93.2 70.3 47% 100 30.05 0.0
02 14:55 NE 7 10.00 Mostly Cloudy BKN048 BKN060 91.8 70.5 50% 98 30.06 0.0
02 14:35 E 7 10.00 Mostly Cloudy SCT048 BKN060 93.2 71.4 49% 101 30.07 0.0
02 14:15 E 7 10.00 Partly Cloudy SCT044 92.7 70.9 49% 99 30.07 0.0
02 13:55 E 6 10.00 Partly Cloudy SCT043 SCT050 91.9 71.8 92.1 75 52% 99 30.07 0.0
02 13:35 E 7 10.00 Partly Cloudy SCT038 SCT044 90.5 72.3 55% 98 30.08 0.0
02 13:15 N 5 10.00 Partly Cloudy SCT038 90.3 73.4 58% 99 30.1 0.0
02 12:55 N 3 10.00 Partly Cloudy SCT038 90.5 72.9 56% 99 30.1 0.0
02 12:35 NE 7 10.00 Partly Cloudy SCT034 SCT041 90.5 73 57% 99 30.11 0.0
02 12:15 E 5 10.00 Fair CLR 89.2 73 59% 97 30.11 0.0
02 11:55 Calm 10.00 Fair CLR 88.9 72.9 59% 97 30.11 0.0
02 11:35 N 5 10.00 Fair CLR 88.2 71.4 58% 94 30.12 0.0
02 11:15 N 3 10.00 Partly Cloudy SCT002 86.5 73 64% 94 30.12 0.0
02 10:55 NE 5 10.00 Partly Cloudy SCT002 85.3 73.8 69% 93 30.12 0.0
02 10:35 NE 3 10.00 Fair CLR 84.9 75 72% 93 30.11 0.0
02 10:15 Calm 10.00 Fair CLR 81.1 76.1 85% 88 30.11 0.0
02 09:55 Calm 10.00 Fair CLR 79 75.9 90% 83 30.11 0.0
02 09:35 N 3 10.00 Fair CLR 78.3 76.1 93% 81 30.11 0.0
02 09:15 Calm 10.00 Fair CLR 77.4 75.7 95% 79 30.11 0.0
02 08:55 N 3 10.00 Fair CLR 77 75.6 95% 78 30.11 0.0
02 08:35 N 3 10.00 Fair CLR 76.3 75.2 96% 76 30.11 0.0
02 08:15 Calm 10.00 Fair CLR 75.7 74.5 96% 75 30.11 0.0
02 07:55 Calm 10.00 Fair CLR 74.8 73.6 76.3 73.2 96% 30.11 0.0
02 07:35 Calm 5.00 Fair CLR 74.1 72.9 96% 30.1 0.0
02 07:15 Calm 7.00 Fair CLR 73.4 72.1 96% 30.09 0.0
02 06:55 Calm 2.50 Fair CLR 73.9 72.7 96% 30.09 0.0
02 06:35 Calm 5.00 Fair CLR 74.5 73.4 96% 30.08 0.0
02 06:15 Calm 10.00 Fair CLR 74.3 73 96% 30.08 0.0
02 05:55 Calm 3.00 Fair CLR 74.1 73 96% 30.08 0.0
02 05:35 Calm 1.75 Sky Obscured VV007 73.8 72.5 96% 30.07 0.0
02 05:15 Calm 0.50 Sky Obscured VV005 74.8 73.6 96% 30.07 0.0
02 04:55 Calm 3.00 Fair CLR 75 73.8 96% 73 30.06 0.0
02 04:35 Calm 10.00 Fair CLR 75.2 73.8 95% 74 30.06 0.0
02 04:15 Calm 7.00 Fair CLR 74.7 73.2 95% 30.06 0.0
02 03:55 Calm 2.50 Fair CLR 75.4 74.3 96% 74 30.06 0.0
02 03:35 Calm 10.00 Fair CLR 75.9 74.5 95% 75 30.06 0.0
02 03:15 Calm 10.00 Fair CLR 75.7 74.3 95% 75 30.06 0.0
02 02:55 Calm 10.00 Fair CLR 75.6 74.3 96% 74 30.06 0.0
02 02:35 Calm 7.00 Fair CLR 74.5 73 95% 30.06 0.0
02 02:15 Calm 7.00 Fair CLR 76.1 74.5 95% 76 30.07 0.0
02 01:55 Calm 10.00 Fair CLR 76.1 74.5 88 75.9 95% 76 30.07 0.0
02 01:35 Calm 5.00 Fair CLR 77 74.3 91% 78 30.07 0.0
02 01:15 Calm 10.00 Fair CLR 77.2 74.8 93% 78 30.07 0.0
02 00:55 Calm 10.00 Fair CLR 78.4 75.2 90% 82 30.08 0.0
02 00:35 Calm 10.00 Fair CLR 78.1 74.8 90% 81 30.08 0.0
02 00:15 Calm 10.00 Fair CLR 79.2 74.8 87% 83 30.08 0.0
01 23:55 Calm 10.00 Fair CLR 79.7 74.8 85% 84 30.08 0.0
01 23:35 S 3 10.00 Fair CLR 79.9 75.2 86% 85 30.08 0.0
01 23:15 Calm 10.00 Fair CLR 80.2 75.2 85% 85 30.09 0.0
01 22:55 Calm 10.00 Fair CLR 79.7 75.4 87% 84 30.09 0.0
01 22:35 Calm 10.00 Fair CLR 79.2 75.2 88% 83 30.08 0.0
01 22:15 Calm 10.00 Fair CLR 78.4 74.7 88% 81 30.07 0.0
01 21:55 Calm 10.00 Fair CLR 79.7 74.5 84% 84 30.07 0.0
01 21:35 Calm 10.00 Fair CLR 79.2 74.7 86% 83 30.06 0.0
01 21:15 Calm 10.00 Fair CLR 79.7 74.5 84% 84 30.05 0.0
01 20:55 SE 3 10.00 Fair CLR 79.3 74.5 85% 83 30.05 0.0
01 20:35 Calm 10.00 Fair CLR 81.9 74.7 79% 88 30.04 0.0
01 20:15 Calm 10.00 Fair CLR 82.4 76.1 81% 90 30.04 0.0
01 19:55 Calm 10.00 Fair CLR 88.5 71.6 93.9 88.5 57% 95 30.04 0.0
01 19:35 Calm 10.00 Fair CLR 89.4 71.4 55% 96 30.04 0.0
01 19:15 NE 5 10.00 Fair CLR 90.7 70.7 52% 97 30.04 0.0
01 18:55 NE 3 10.00 Fair CLR 91.2 71.1 52% 98 30.04 0.0
01 18:35 E 5 10.00 Fair CLR 92.1 71.1 50% 99 30.04 0.0
01 18:15 E 3 10.00 Partly Cloudy SCT060 SCT090 90.5 71.4 54% 97 30.04 0.0
01 17:55 E 7 10.00 Mostly Cloudy SCT060 SCT070 BKN090 93.6 71.1 48% 101 30.04 0.0
01 17:35 E 5 10.00 Partly Cloudy SCT050 SCT065 SCT090 90 71.1 54% 96 30.04 0.0
01 17:15 E 5 10.00 Mostly Cloudy SCT050 SCT065 BKN075 93.6 71.4 49% 101 30.04 0.0
01 16:55 E 5 10.00 Mostly Cloudy SCT048 SCT050 BKN085 92.1 71.4 51% 99 30.04 0.0
01 16:35 NE 5 10.00 Mostly Cloudy BKN050 BKN060 BKN080 91.2 70.9 51% 98 30.04 0.0
01 16:15 E 3 10.00 Mostly Cloudy SCT060 BKN070 91.4 70.3 50% 97 30.05 0.0
01 15:55 SE 3 10.00 Partly Cloudy SCT045 SCT050 92.5 71.8 51% 100 30.05 0.0
01 15:35 E 3 10.00 Partly Cloudy SCT045 SCT055 91.2 71.4 52% 98 30.06 0.0
01 15:15 NE 6 10.00 Partly Cloudy SCT045 91.8 72 52% 99 30.07 0.0
01 14:55 E 3 10.00 Partly Cloudy SCT040 SCT080 90.5 71.6 54% 97 30.07 0.0
01 14:35 SE 6 10.00 Partly Cloudy SCT040 SCT070 91.2 73.2 56% 100 30.08 0.0
01 14:15 E 5 10.00 Partly Cloudy SCT040 SCT048 SCT070 91.8 72.3 53% 100 30.09 0.0
01 13:55 NE 6 10.00 Mostly Cloudy BKN040 BKN046 BKN050 89.1 71.6 91.4 74.7 56% 96 30.1 0.0
01 13:35 E 6 10.00 Mostly Cloudy BKN042 90.9 72 54% 98 30.1 0.0
01 13:15 E 3 10.00 Mostly Cloudy BKN038 90.3 72 55% 98 30.11 0.0
01 12:55 NE 5 10.00 Mostly Cloudy BKN038 BKN043 90 72.5 57% 98 30.12 0.0
01 12:35 E 6 10.00 Partly Cloudy SCT034 88.9 72.3 58% 96 30.12 0.0
01 12:15 NE 7 10.00 Fair CLR 88.3 71.8 58% 95 30.12 0.0
01 11:55 NE 8 10.00 Partly Cloudy SCT027 88.2 73 61% 96 30.13 0.0
01 11:35 N 7 10.00 Partly Cloudy SCT027 86.9 72.9 63% 94 30.13 0.0
01 11:15 E 7 10.00 Fair CLR 86.4 72.7 64% 93 30.13 0.0
01 10:35 NE 5 10.00 Fair CLR 83.8 73.4 71% 90 30.13 0.0
01 10:15 NE 3 10.00 Fair CLR 82.6 74.5 77% 89 30.12 0.0
01 09:55 N 3 10.00 Partly Cloudy SCT006 SCT010 81.1 74.7 81% 87 30.12 0.0
01 09:35 NE 3 10.00 Mostly Cloudy BKN004 79.5 75.2 87% 84 30.12 0.0
01 09:15 E 3 10.00 Mostly Cloudy BKN004 77.7 75.2 92% 80 30.12 0.0
01 08:55 Calm 10.00 Overcast OVC002 76.5 75 95% 77 30.12 0.0
01 08:35 Calm 10.00 Mostly Cloudy BKN002 76.1 75 96% 76 30.12 0.0
01 08:15 N 3 5.00 Mostly Cloudy BKN002 75.2 74.3 97% 73 30.11 0.0
01 07:55 Calm 10.00 Fair CLR 74.7 73.6 76.1 72.3 96% 30.1 0.0
01 07:35 Calm 7.00 Fair CLR 73 71.8 96% 30.1 0.0
01 07:15 Calm 7.00 Fair CLR 73.2 72 96% 30.09 0.0
01 06:55 Calm 1.00 Sky Obscured VV007 73.6 72.3 96% 30.09 0.0
01 06:35 Calm 2.50 Fair CLR 72.3 71.1 96% 30.09 0.0
01 06:15 Calm 7.00 Fair CLR 73.6 72.5 96% 30.08 0.0
01 05:55 Calm 7.00 Fair CLR 73.8 72.7 96% 30.08 0.0
01 05:35 Calm 4.00 Fair CLR 74.5 73.4 96% 30.07 0.0
01 05:15 Calm 10.00 Fair CLR 74.1 72.7 95% 30.07 0.0
01 04:55 Calm 10.00 Fair CLR 74.3 73 96% 30.07 0.0
01 04:35 Calm 10.00 Fair CLR 74.3 72.9 95% 30.07 0.0
01 04:15 Calm 10.00 Fair CLR 74.3 73 96% 30.07 0.0
01 03:55 Calm 1.75 Sky Obscured VV007 74.3 73 96% 30.07 0.0
01 03:35 Calm 3.00 Fair CLR 74.8 73.4 95% 30.07 0.0
01 03:15 Calm 10.00 Fair CLR 74.8 73 94% 30.07 0.0
01 02:55 Calm 10.00 Fair CLR 74.8 73.2 95% 30.08 0.0
01 02:35 Calm 10.00 Fair CLR 75.2 73.6 95% 74 30.08 0.0
01 02:15 Calm 10.00 Fair CLR 75.7 73.9 94% 75 30.09 0.0
01 01:55 Calm 10.00 Fair CLR 76.1 74.1 87.3 75.4 94% 76 30.1 0.0
01 01:35 Calm 10.00 Fair CLR 75.4 73.6 94% 74 30.1 0.0
01 01:15 Calm 10.00 Fair CLR 76.6 73.6 90% 77 30.1 0.0
01 00:55 Calm 10.00 Fair CLR 77.2 74.3 91% 79 30.1 0.0
01 00:35 Calm 10.00 Fair CLR 77.5 74.1 89% 79 30.1 0.0
01 00:15 Calm 10.00 Fair CLR 77.7 73.9 88% 80 30.1 0.0
31 23:55 Calm 10.00 Fair CLR 78.1 74.3 88% 81 30.1 0.0
31 23:35 Calm 10.00 Fair CLR 78.4 74.3 87% 81 30.1 0.0
31 23:15 SE 3 10.00 Fair CLR 78.8 74.3 86% 82 30.1 0.0
31 22:55 Calm 10.00 Fair CLR 78.8 74.3 86% 82 30.11 0.0
31 22:35 Calm 10.00 Fair CLR 78.1 74.8 90% 81 30.1 0.0
31 22:15 Calm 10.00 Fair CLR 79.7 74.7 85% 84 30.1 0.0
31 21:55 Calm 10.00 Partly Cloudy SCT050 SCT070 81 74.3 80% 86 30.09 0.0
31 21:35 Calm 10.00 Partly Cloudy SCT070 81.1 75 82% 87 30.08 0.0
31 21:15 Calm 10.00 Partly Cloudy SCT050 SCT065 81.5 74.7 80% 88 30.07 0.0
31 20:55 Calm 10.00 Partly Cloudy SCT050 SCT065 81.9 74.7 79% 88 30.07 0.0
31 20:35 SE 5 10.00 Partly Cloudy SCT050 82.6 74.3 76% 89 30.07 0.0
31 20:15 S 3 10.00 Mostly Cloudy BKN050 BKN070 83.8 74.3 73% 91 30.06 0.0
31 19:55 SE 9 10.00 Partly Cloudy SCT050 SCT070 88 72 93 88 59% 95 30.05 0.0
31 19:35 NE 3 10.00 Fair CLR 89.1 70.2 54% 94 30.05 0.0
31 19:15 NE 3 10.00 Fair CLR 90.3 69.6 51% 96 30.05 0.0
31 18:55 NE 8 10.00 Fair CLR 90.7 69.1 49% 95 30.05 0.0
31 18:35 NE 5 10.00 Fair CLR 91.4 71.2 52% 98 30.04 0.0
31 18:15 E 5 10.00 Partly Cloudy SCT047 91.8 70.7 50% 98 30.04 0.0
31 17:55 E 7 10.00 Partly Cloudy SCT047 92.3 70.5 49% 99 30.05 0.0
31 17:35 NE 5 10.00 Fair CLR 92.3 70.2 48% 98 30.05 0.0
31 17:15 NE 7 10.00 Partly Cloudy SCT047 92.8 71.4 50% 100 30.05 0.0
31 16:55 Calm 10.00 Partly Cloudy SCT046 91.9 70.3 49% 98 30.05 0.0
31 16:35 NE 5 10.00 Partly Cloudy SCT046 91.4 70.2 50% 97 30.06 0.0
31 16:15 N 6 10.00 Partly Cloudy SCT046 92.5 71.1 50% 99 30.06 0.0
31 15:55 E 8 10.00 Partly Cloudy SCT044 91.4 70.3 50% 97 30.07 0.0
31 15:35 NE 7 10.00 Partly Cloudy SCT044 SCT070 91.6 71.1 51% 98 30.08 0.0
31 15:15 NE 6 10.00 Mostly Cloudy SCT042 SCT048 BKN065 88.7 71.6 57% 95 30.08 0.0
31 14:55 E 3 10.00 Partly Cloudy SCT040 SCT048 SCT055 90.3 72 55% 98 30.09 0.0
31 14:35 NE 6 10.00 Partly Cloudy SCT038 SCT048 SCT050 90.5 72.3 55% 98 30.1 0.0
31 14:15 E 5 10.00 Partly Cloudy SCT038 SCT045 SCT050 91 73.2 56% 100 30.11 0.0
31 13:55 E 6 10.00 Partly Cloudy SCT036 SCT042 89.2 72.1 89.6 74.8 57% 96 30.11 0.0
31 13:35 Calm 10.00 Partly Cloudy SCT032 SCT038 87.8 72.5 61% 95 30.12 0.0
31 13:15 SE 6 10.00 Mostly Cloudy SCT032 BKN038 89.2 73 59% 97 30.12 0.0
31 12:55 NE 5 10.00 Partly Cloudy SCT032 88.7 73 60% 97 30.13 0.0
31 12:35 E 6 10.00 Mostly Cloudy BKN032 88.2 73.2 61% 96 30.13 0.0
31 12:15 NE 3 10.00 Partly Cloudy SCT032 87.3 73.2 63% 95 30.14 0.0
31 11:55 E 7 10.00 Partly Cloudy SCT027 SCT034 87.3 73.4 64% 95 30.15 0.0
31 11:35 Calm 10.00 Partly Cloudy SCT028 SCT034 85.3 73.4 68% 92 30.15 0.0
31 11:15 NE 5 5.00 Fair CLR 85.3 73.9 69% 93 30.15 0.0
31 10:55 E 5 7.00 Partly Cloudy SCT017 84.6 74.1 71% 92 30.14 0.0
31 10:35 E 7 10.00 Mostly Cloudy BKN014 BKN020 84.2 74.3 72% 92 30.14 0.0
31 10:15 N 3 10.00 Mostly Cloudy BKN011 BKN017 82.6 75 78% 90 30.14 0.0
31 09:55 NE 3 10.00 Partly Cloudy SCT007 SCT012 80.1 74.7 84% 85 30.14 0.0
31 09:35 NE 5 10.00 Mostly Cloudy BKN007 77.7 75.7 94% 80 30.14 0.0
31 09:15 Calm 10.00 Mostly Cloudy BKN005 76.3 75.2 96% 76 30.14 0.0
31 08:55 Calm 10.00 Overcast OVC003 76.3 75.4 97% 76 30.14 0.0
31 08:35 Calm 10.00 Overcast OVC003 75.7 74.7 96% 75 30.13 0.0
31 08:15 Calm 3.00 Overcast OVC003 75.2 74.3 97% 73 30.13 0.0
31 07:55 NE 3 0.50 Overcast OVC003 74.8 73.8 75.2 73.6 96% 30.12 0.0
31 07:35 NE 3 0.75 Overcast OVC003 74.8 73.8 96% 30.12 0.0
31 07:15 NE 3 1.25 Overcast OVC003 75 73.9 96% 73 30.11 0.0
31 06:55 NE 3 0.75 Overcast OVC003 75.2 73.9 96% 73 30.11 0.0
31 06:35 NE 3 0.25 Overcast OVC003 75.2 73.9 96% 73 30.1 0.0
31 06:15 NE 3 0.50 Overcast OVC003 74.8 73.8 96% 30.1 0.0
31 05:55 Calm 0.50 Overcast OVC003 74.8 73.8 96% 30.1 0.0
31 05:35 Calm 0.50 Overcast OVC003 74.7 73.4 96% 30.09 0.0
31 05:15 Calm 0.50 Overcast OVC003 74.5 73.4 96% 30.09 0.0
31 04:55 NE 3 0.50 Overcast OVC003 74.3 72.9 95% 30.09 0.0
31 04:35 NE 3 7.00 Mostly Cloudy BKN003 BKN018 73.9 72.7 96% 30.09 0.0
31 04:15 Calm 10.00 Fair CLR 73.6 72.3 96% 30.09 0.0
31 03:55 Calm 10.00 Fair CLR 73.8 72.3 95% 30.1 0.0
31 03:35 Calm 10.00 Fair CLR 73.8 72.5 96% 30.09 0.0
31 03:15 Calm 10.00 Fair CLR 74.1 72.5 95% 30.1 0.0
Date Time (edt) Wind (mph) Vis. (mi.) Weather Sky Cond. Air Dwpt Max. Min. Relative Humidity Wind Chill (°F) Heat Index (°F) altimeter (in) sea level (mb) 1 hr 3 hr 6 hr
6 hour
Temperature (ºF) Pressure Precipitation (in)